createdAt,value
2022-09-15T00:04:06.309Z,13.9
2022-09-15T00:09:12.399Z,13.8
2022-09-15T00:14:18.489Z,13.8
2022-09-15T00:19:24.579Z,13.7
2022-09-15T00:24:30.663Z,13.7
2022-09-15T00:29:35.778Z,13.7
2022-09-15T00:34:41.876Z,13.7
2022-09-15T00:39:47.981Z,13.6
2022-09-15T00:44:54.055Z,13.6
2022-09-15T00:50:00.155Z,13.6
2022-09-15T00:55:06.257Z,13.5
2022-09-15T01:00:12.373Z,13.3
2022-09-15T01:05:17.463Z,13.3
2022-09-15T01:10:22.570Z,13.3
2022-09-15T01:15:27.704Z,13.2
2022-09-15T01:20:32.808Z,13.1
2022-09-15T01:25:38.892Z,13
2022-09-15T01:30:44.995Z,13
2022-09-15T01:35:51.074Z,12.9
2022-09-15T01:40:57.185Z,12.9
2022-09-15T01:46:03.279Z,12.9
2022-09-15T01:51:09.375Z,12.9
2022-09-15T01:56:15.455Z,12.8
2022-09-15T02:01:21.561Z,12.7
2022-09-15T02:06:27.659Z,12.7
2022-09-15T02:11:33.757Z,12.7
2022-09-15T02:16:39.859Z,12.9
2022-09-15T02:21:45.956Z,13
2022-09-15T02:26:51.050Z,13
2022-09-15T02:31:57.137Z,13.1
2022-09-15T02:37:03.253Z,13.1
2022-09-15T02:42:09.341Z,13.1
2022-09-15T02:47:15.441Z,13
2022-09-15T02:52:21.530Z,12.8
2022-09-15T02:57:27.625Z,12.7
2022-09-15T03:02:32.728Z,12.6
2022-09-15T03:07:37.848Z,12.5
2022-09-15T03:12:43.941Z,12.3
2022-09-15T03:17:50.047Z,12.4
2022-09-15T03:22:56.122Z,12.4
2022-09-15T03:28:02.252Z,12.5
2022-09-15T03:33:08.337Z,12.5
2022-09-15T03:38:14.424Z,12.5
2022-09-15T03:43:20.516Z,12.4
2022-09-15T03:48:25.636Z,12.3
2022-09-15T03:53:31.734Z,12.2
2022-09-15T03:58:37.820Z,12
2022-09-15T04:03:43.924Z,11.8
2022-09-15T04:08:50.037Z,11.7
2022-09-15T04:13:56.123Z,11.5
2022-09-15T04:19:02.251Z,11.5
2022-09-15T04:24:08.304Z,11.5
2022-09-15T04:29:14.478Z,11.5
2022-09-15T04:34:20.480Z,11.6
2022-09-15T04:39:26.589Z,11.7
2022-09-15T04:44:32.716Z,11.7
2022-09-15T04:49:37.793Z,11.9
2022-09-15T04:54:42.938Z,11.9
2022-09-15T04:59:49.029Z,12
2022-09-15T05:04:55.087Z,12
2022-09-15T05:10:01.198Z,12.2
2022-09-15T05:15:07.297Z,12.3
2022-09-15T05:20:13.483Z,12.5
2022-09-15T05:25:19.477Z,12.6
2022-09-15T05:30:25.566Z,12.7
2022-09-15T05:35:31.688Z,12.8
2022-09-15T05:40:37.866Z,12.9
2022-09-15T05:45:43.850Z,12.9
2022-09-15T05:50:50.055Z,13
2022-09-15T05:55:56.058Z,12.9
2022-09-15T06:01:01.181Z,13
2022-09-15T06:06:07.266Z,13
2022-09-15T06:11:13.361Z,13.1
2022-09-15T06:16:19.451Z,13.3
2022-09-15T06:21:25.550Z,13.3
2022-09-15T06:26:31.716Z,13.3
2022-09-15T06:31:37.770Z,13.3
2022-09-15T06:36:42.843Z,13.4
2022-09-15T06:41:48.006Z,13.6
2022-09-15T06:46:53.074Z,13.8
2022-09-15T06:51:58.241Z,13.9
2022-09-15T06:57:03.293Z,14.1
2022-09-15T07:02:08.400Z,14.1
2022-09-15T07:07:14.502Z,14.1
2022-09-15T07:12:20.637Z,14
2022-09-15T07:17:26.754Z,13.9
2022-09-15T07:22:32.783Z,13.9
2022-09-15T07:27:38.891Z,14
2022-09-15T07:32:44.992Z,14.3
2022-09-15T07:37:51.069Z,14.5
2022-09-15T07:42:57.182Z,14.8
2022-09-15T07:48:03.259Z,15
2022-09-15T07:53:09.360Z,14.9
2022-09-15T07:58:15.460Z,15
2022-09-15T08:03:21.549Z,15.1
2022-09-15T08:08:26.666Z,15.4
2022-09-15T08:13:32.875Z,15.3
2022-09-15T08:18:38.870Z,15.6
2022-09-15T08:23:44.946Z,16.4
2022-09-15T08:28:51.042Z,16.8
2022-09-15T08:33:57.132Z,17.3
2022-09-15T08:39:03.208Z,17.6
2022-09-15T08:44:08.342Z,17.6
2022-09-15T08:49:13.534Z,18.1
2022-09-15T08:54:18.592Z,19.3
2022-09-15T08:59:23.720Z,19.7
2022-09-15T09:04:29.806Z,20.1
2022-09-15T09:09:35.868Z,20.5
2022-09-15T09:14:41.978Z,20.8
2022-09-15T09:19:48.082Z,21.3
2022-09-15T09:24:54.170Z,21.9
2022-09-15T09:30:00.220Z,22.4
2022-09-15T09:35:06.350Z,21.2
2022-09-15T09:40:12.428Z,21.7
2022-09-15T09:45:18.521Z,21.5
2022-09-15T09:50:24.620Z,20.6
2022-09-15T09:55:30.719Z,19.3
2022-09-15T10:00:36.802Z,19.8
2022-09-15T10:05:41.977Z,18.7
2022-09-15T10:10:48.011Z,18.2
2022-09-15T10:15:54.101Z,18
2022-09-15T10:21:00.205Z,17.6
2022-09-15T10:26:06.288Z,17.3
2022-09-15T10:31:12.434Z,17
2022-09-15T10:36:18.479Z,16.8
2022-09-15T10:41:23.600Z,16.7
2022-09-15T10:46:28.720Z,16.7
2022-09-15T10:51:34.873Z,16.7
2022-09-15T10:56:41.018Z,16.9
2022-09-15T11:01:47.080Z,17.9
2022-09-15T11:06:53.072Z,20
2022-09-15T11:11:59.293Z,18.8
2022-09-15T11:17:05.421Z,18.2
2022-09-15T11:22:11.431Z,17.7
2022-09-15T11:27:17.466Z,17.5
2022-09-15T11:32:23.606Z,17.5
2022-09-15T11:37:29.660Z,17.8
2022-09-15T11:42:35.841Z,18
2022-09-15T11:47:41.916Z,18.5
2022-09-15T11:52:46.954Z,19
2022-09-15T11:57:53.034Z,19.1
2022-09-15T12:02:59.189Z,19.2
2022-09-15T12:08:05.218Z,19.3
2022-09-15T12:13:11.465Z,19.5
2022-09-15T12:18:17.411Z,19.7
2022-09-15T12:23:23.610Z,19.5
2022-09-15T12:28:28.746Z,19.5
2022-09-15T12:33:33.807Z,19.2
2022-09-15T12:38:39.929Z,18.6
2022-09-15T12:43:45.947Z,18.1
2022-09-15T12:48:52.069Z,17.8
2022-09-15T12:53:58.131Z,17.5
2022-09-15T12:59:04.198Z,17.4
2022-09-15T13:04:10.422Z,17.3
2022-09-15T13:09:16.439Z,17.3
2022-09-15T13:14:22.543Z,17.5
2022-09-15T13:19:28.600Z,18
2022-09-15T13:24:34.680Z,18.3
2022-09-15T13:29:40.761Z,18.4
2022-09-15T13:34:46.872Z,18.7
2022-09-15T13:39:51.983Z,18.7
2022-09-15T13:44:58.085Z,18.6
2022-09-15T13:50:04.170Z,18.6
2022-09-15T13:55:10.285Z,18.7
2022-09-15T14:00:16.353Z,18.6
2022-09-15T14:05:22.459Z,18.7
2022-09-15T14:10:28.586Z,18.6
2022-09-15T14:15:33.668Z,18.6
2022-09-15T14:20:38.816Z,19
2022-09-15T14:25:43.927Z,19
2022-09-15T14:30:48.983Z,18.9
2022-09-15T14:35:55.198Z,18.9
2022-09-15T14:41:00.319Z,19.1
2022-09-15T14:46:05.438Z,19.5
2022-09-15T14:51:10.475Z,19.3
2022-09-15T14:56:15.657Z,19.1
2022-09-15T15:01:20.697Z,19
2022-09-15T15:06:25.769Z,18.8
2022-09-15T15:11:31.976Z,18.6
2022-09-15T15:16:38.098Z,18.6
2022-09-15T15:21:44.153Z,18.6
2022-09-15T15:26:50.222Z,18.6
2022-09-15T15:31:56.228Z,18.6
2022-09-15T15:37:02.397Z,18.5
2022-09-15T15:42:08.422Z,18.6
2022-09-15T15:47:14.617Z,18.6
2022-09-15T15:52:20.612Z,18.4
2022-09-15T15:57:26.692Z,18.1
2022-09-15T16:02:32.840Z,18
2022-09-15T16:07:38.896Z,17.9
2022-09-15T16:12:44.062Z,17.8
2022-09-15T16:17:50.097Z,17.7
2022-09-15T16:22:56.187Z,17.6
2022-09-15T16:28:02.298Z,17.6
2022-09-15T16:33:08.389Z,17.6
2022-09-15T16:38:14.477Z,17.5
2022-09-15T16:43:20.567Z,17.4
2022-09-15T16:48:25.694Z,17.3
2022-09-15T16:53:30.797Z,17.1
2022-09-15T16:58:36.875Z,16.9
2022-09-15T17:03:42.983Z,16.7
2022-09-15T17:08:49.080Z,16.5
2022-09-15T17:13:55.174Z,16.5
2022-09-15T17:19:01.258Z,16.4
2022-09-15T17:24:07.362Z,16.4
2022-09-15T17:29:13.449Z,16.3
2022-09-15T17:34:19.558Z,16.2
2022-09-15T17:39:25.637Z,16.2
2022-09-15T17:44:31.747Z,16.1
2022-09-15T17:49:37.851Z,16.1
2022-09-15T17:54:43.926Z,16.1
2022-09-15T17:59:49.106Z,16.1
2022-09-15T18:04:55.128Z,16
2022-09-15T18:10:01.233Z,16
2022-09-15T18:15:07.332Z,15.9
2022-09-15T18:20:13.414Z,15.9
2022-09-15T18:30:25.594Z,15.8
2022-09-15T18:35:31.688Z,15.9
2022-09-15T18:40:36.800Z,15.9
2022-09-15T18:45:41.930Z,15.9
2022-09-15T18:50:47.026Z,15.7
2022-09-15T18:55:52.157Z,15.2
2022-09-15T19:00:57.300Z,15
2022-09-15T19:06:02.381Z,14.9
2022-09-15T19:11:08.468Z,14.8
2022-09-15T19:16:14.558Z,14.8
2022-09-15T19:21:20.666Z,14.8
2022-09-15T19:26:26.750Z,14.8
2022-09-15T19:31:32.856Z,15
2022-09-15T19:36:38.949Z,15.1
2022-09-15T19:41:45.074Z,15.2
2022-09-15T19:46:51.239Z,15.3
2022-09-15T19:51:57.362Z,15.4
2022-09-15T19:57:03.486Z,15.5
2022-09-15T20:02:09.558Z,15.4
2022-09-15T20:07:15.645Z,15.3
2022-09-15T20:12:20.609Z,15.2
2022-09-15T20:17:26.717Z,15
2022-09-15T20:22:32.815Z,14.8
2022-09-15T20:27:38.894Z,14.7
2022-09-15T20:32:45.006Z,14.6
2022-09-15T20:37:51.089Z,14.5
2022-09-15T20:42:57.193Z,14.5
2022-09-15T20:48:02.295Z,14.4
2022-09-15T20:53:07.430Z,14.4
2022-09-15T20:58:12.538Z,14.4
2022-09-15T21:03:17.648Z,14.3
2022-09-15T21:08:23.739Z,13.8
2022-09-15T21:13:29.826Z,13.4
2022-09-15T21:18:35.943Z,13.2
2022-09-15T21:23:42.021Z,13.1
2022-09-15T21:28:48.134Z,13.1
2022-09-15T21:33:54.225Z,13
2022-09-15T21:39:00.360Z,13
2022-09-15T21:44:06.407Z,13
2022-09-15T21:49:12.485Z,12.9
2022-09-15T21:54:18.589Z,12.9
2022-09-15T21:59:24.689Z,12.9
2022-09-15T22:04:30.785Z,12.8
2022-09-15T22:09:35.893Z,12.8
2022-09-15T22:14:41.984Z,12.8
2022-09-15T22:19:48.074Z,12.7
2022-09-15T22:24:54.187Z,12.5
2022-09-15T22:30:00.294Z,12.4
2022-09-15T22:35:06.395Z,12.4
2022-09-15T22:40:12.477Z,12.4
2022-09-15T22:45:17.636Z,12.4
2022-09-15T22:50:22.695Z,12.3
2022-09-15T22:55:28.793Z,12.2
2022-09-15T23:00:33.907Z,12.1
2022-09-15T23:05:39.012Z,12.1
2022-09-15T23:10:45.159Z,12
2022-09-15T23:15:51.216Z,12
2022-09-15T23:20:57.305Z,12
2022-09-15T23:26:03.406Z,12
2022-09-15T23:31:09.492Z,12
2022-09-15T23:36:15.587Z,12
2022-09-15T23:41:21.677Z,12
2022-09-15T23:46:27.785Z,12
2022-09-15T23:51:33.870Z,12
2022-09-15T23:56:39.967Z,12
